createdAt,value
2022-10-11T00:00:06.743Z,62.87
2022-10-11T00:00:50.266Z,62.95
2022-10-11T00:01:37.543Z,62.85
2022-10-11T00:02:10.922Z,62.90
2022-10-11T00:02:44.186Z,62.91
2022-10-11T00:03:17.477Z,62.87
2022-10-11T00:03:50.547Z,62.83
2022-10-11T00:04:23.893Z,62.72
2022-10-11T00:04:57.310Z,62.42
2022-10-11T00:05:30.902Z,62.54
2022-10-11T00:06:06.462Z,62.66
2022-10-11T00:06:40.159Z,62.54
2022-10-11T00:07:13.461Z,62.38
2022-10-11T00:07:46.665Z,62.28
2022-10-11T00:08:20.315Z,62.23
2022-10-11T00:08:53.752Z,62.19
2022-10-11T00:09:26.832Z,61.97
2022-10-11T00:09:59.861Z,61.91
2022-10-11T00:10:35.710Z,61.85
2022-10-11T00:11:10.533Z,61.88
2022-10-11T00:11:43.765Z,61.54
2022-10-11T00:12:16.977Z,61.27
2022-10-11T00:12:52.505Z,61.11
2022-10-11T00:13:26.804Z,61.18
2022-10-11T00:14:00.003Z,61.03
2022-10-11T00:14:34.314Z,60.83
2022-10-11T00:15:09.869Z,60.88
2022-10-11T00:15:43.186Z,61.01
2022-10-11T00:16:16.334Z,60.48
2022-10-11T00:16:49.365Z,60.00
2022-10-11T00:17:22.889Z,59.31
2022-10-11T00:17:56.680Z,58.63
2022-10-11T00:18:30.083Z,58.20
2022-10-11T00:19:03.764Z,58.08
2022-10-11T00:19:37.028Z,58.24
2022-10-11T00:20:11.009Z,58.71
2022-10-11T00:20:44.348Z,59.13
2022-10-11T00:21:17.862Z,59.64
2022-10-11T00:21:51.119Z,60.15
2022-10-11T00:22:24.306Z,60.69
2022-10-11T00:22:57.603Z,61.19
2022-10-11T00:23:30.956Z,61.64
2022-10-11T00:24:04.917Z,62.10
2022-10-11T00:24:37.999Z,62.47
2022-10-11T00:25:12.789Z,62.74
2022-10-11T00:25:45.910Z,62.98
2022-10-11T00:26:19.223Z,62.93
2022-10-11T00:26:52.588Z,62.62
2022-10-11T00:27:25.980Z,62.48
2022-10-11T00:27:59.219Z,62.18
2022-10-11T00:28:33.200Z,61.96
2022-10-11T00:29:06.355Z,61.71
2022-10-11T00:29:39.556Z,61.38
2022-10-11T00:30:13.549Z,61.11
2022-10-11T00:30:46.788Z,60.90
2022-10-11T00:31:20.010Z,60.86
2022-10-11T00:31:53.150Z,60.87
2022-10-11T00:32:26.640Z,60.66
2022-10-11T00:32:59.848Z,60.53
2022-10-11T00:33:33.369Z,60.36
2022-10-11T00:34:06.889Z,60.24
2022-10-11T00:34:39.967Z,60.06
2022-10-11T00:35:13.646Z,59.97
2022-10-11T00:35:46.995Z,59.99
2022-10-11T00:36:20.263Z,60.10
2022-10-11T00:36:53.463Z,60.17
2022-10-11T00:37:26.712Z,60.20
2022-10-11T00:37:59.801Z,60.09
2022-10-11T00:38:33.182Z,60.20
2022-10-11T00:39:06.326Z,60.40
2022-10-11T00:39:39.429Z,60.53
2022-10-11T00:40:18.970Z,60.51
2022-10-11T00:40:52.377Z,60.58
2022-10-11T00:41:25.470Z,60.63
2022-10-11T00:41:58.837Z,60.75
2022-10-11T00:42:31.804Z,60.86
2022-10-11T00:43:05.337Z,60.65
2022-10-11T00:43:39.165Z,60.77
2022-10-11T00:44:25.358Z,61.19
2022-10-11T00:45:26.521Z,61.14
2022-10-11T00:46:08.198Z,61.21
2022-10-11T00:46:45.935Z,61.52
2022-10-11T00:47:22.428Z,61.59
2022-10-11T00:47:57.852Z,61.56
2022-10-11T00:48:45.116Z,61.58
2022-10-11T00:49:24.845Z,61.88
2022-10-11T00:50:01.465Z,61.83
2022-10-11T00:50:36.129Z,61.94
2022-10-11T00:51:20.647Z,61.95
2022-10-11T00:51:59.292Z,61.66
2022-10-11T00:52:40.913Z,61.49
2022-10-11T00:53:14.117Z,61.63
2022-10-11T00:53:50.143Z,61.88
2022-10-11T00:54:27.597Z,61.97
2022-10-11T00:55:07.668Z,62.16
2022-10-11T00:55:52.244Z,62.07
2022-10-11T00:56:31.555Z,62.29
2022-10-11T00:57:08.551Z,62.27
2022-10-11T00:57:44.643Z,62.31
2022-10-11T00:58:19.411Z,62.40
2022-10-11T00:58:54.640Z,62.42
2022-10-11T00:59:31.787Z,62.56
2022-10-11T01:00:08.163Z,62.76
2022-10-11T01:00:41.410Z,62.81
2022-10-11T01:01:14.822Z,62.75
2022-10-11T01:01:48.166Z,62.56
2022-10-11T01:02:23.522Z,62.67
2022-10-11T01:02:57.482Z,62.62
2022-10-11T01:03:33.190Z,62.56
2022-10-11T01:04:06.719Z,62.65
2022-10-11T01:04:40.141Z,62.51
2022-10-11T01:05:30.731Z,62.52
2022-10-11T01:06:04.669Z,62.68
2022-10-11T01:06:38.116Z,62.46
2022-10-11T01:07:11.969Z,62.28
2022-10-11T01:07:48.117Z,62.20
2022-10-11T01:08:21.323Z,61.97
2022-10-11T01:08:55.082Z,61.85
2022-10-11T01:09:28.715Z,61.94
2022-10-11T01:10:01.752Z,62.30
2022-10-11T01:10:35.364Z,62.52
2022-10-11T01:11:14.859Z,61.83
2022-10-11T01:11:50.757Z,61.16
2022-10-11T01:12:26.881Z,59.97
2022-10-11T01:13:00.014Z,59.39
2022-10-11T01:13:40.741Z,58.94
2022-10-11T01:14:29.224Z,58.62
2022-10-11T01:15:31.384Z,58.71
2022-10-11T01:16:04.668Z,59.32
2022-10-11T01:17:16.254Z,60.49
2022-10-11T01:18:08.714Z,60.42
2022-10-11T01:18:53.472Z,61.51
2022-10-11T01:19:38.416Z,62.07
2022-10-11T01:20:26.714Z,62.64
2022-10-11T01:21:13.606Z,64.21
2022-10-11T01:21:46.639Z,64.33
2022-10-11T01:22:25.465Z,62.41
2022-10-11T01:23:21.500Z,61.55
2022-10-11T01:24:23.355Z,61.43
2022-10-11T01:25:27.919Z,60.47
2022-10-11T01:26:22.425Z,59.49
2022-10-11T01:27:25.547Z,59.05
2022-10-11T01:28:19.604Z,59.31
2022-10-11T01:28:59.686Z,60.13
2022-10-11T01:30:07.831Z,60.89
2022-10-11T01:30:42.454Z,60.96
2022-10-11T01:31:49.829Z,62.35
2022-10-11T01:32:35.399Z,62.89
2022-10-11T01:33:35.384Z,64.23
2022-10-11T01:34:35.977Z,64.51
2022-10-11T01:35:19.111Z,63.28
2022-10-11T01:36:28.198Z,61.02
2022-10-11T01:37:23.102Z,60.44
2022-10-11T01:38:03.057Z,57.68
2022-10-11T01:38:46.081Z,57.13
2022-10-11T01:39:31.754Z,57.40
2022-10-11T01:40:11.697Z,57.67
2022-10-11T01:40:54.668Z,58.44
2022-10-11T01:41:31.446Z,59.31
2022-10-11T01:42:10.095Z,60.15
2022-10-11T01:42:44.416Z,60.78
2022-10-11T01:43:20.261Z,61.64
2022-10-11T01:43:59.008Z,62.21
2022-10-11T01:44:34.589Z,62.76
2022-10-11T01:45:15.821Z,63.61
2022-10-11T01:45:53.127Z,64.28
2022-10-11T01:46:27.551Z,63.55
2022-10-11T01:47:00.677Z,62.41
2022-10-11T01:47:33.873Z,61.28
2022-10-11T01:48:09.611Z,60.35
2022-10-11T01:48:57.056Z,59.66
2022-10-11T01:49:30.169Z,58.76
2022-10-11T01:50:03.757Z,57.20
2022-10-11T01:50:44.160Z,56.84
2022-10-11T01:51:21.597Z,57.16
2022-10-11T01:51:59.902Z,57.51
2022-10-11T01:52:36.362Z,57.80
2022-10-11T01:53:31.443Z,58.48
2022-10-11T01:55:07.541Z,58.67
2022-10-11T01:55:50.643Z,59.01
2022-10-11T01:56:34.161Z,60.93
2022-10-11T01:57:31.846Z,61.72
2022-10-11T01:58:15.951Z,61.91
2022-10-11T01:59:34.347Z,62.89
2022-10-11T02:00:14.630Z,65.06
2022-10-11T02:00:56.722Z,64.01
2022-10-11T02:01:32.693Z,62.71
2022-10-11T02:02:24.414Z,61.18
2022-10-11T02:03:19.156Z,61.36
2022-10-11T02:04:07.356Z,60.03
2022-10-11T02:04:58.646Z,58.04
2022-10-11T02:05:40.731Z,57.32
2022-10-11T02:06:56.518Z,57.35
2022-10-11T02:08:01.668Z,57.64
2022-10-11T02:08:39.017Z,58.40
2022-10-11T02:09:17.534Z,59.91
2022-10-11T02:10:10.947Z,60.62
2022-10-11T02:11:09.890Z,60.89
2022-10-11T02:11:44.685Z,61.75
2022-10-11T02:12:25.951Z,62.89
2022-10-11T02:13:09.898Z,63.92
2022-10-11T02:13:48.942Z,63.84
2022-10-11T02:14:31.510Z,63.56
2022-10-11T02:15:09.560Z,63.18
2022-10-11T02:15:44.875Z,61.65
2022-10-11T02:16:24.622Z,60.35
2022-10-11T02:17:04.447Z,59.66
2022-10-11T02:17:45.245Z,58.14
2022-10-11T02:18:20.633Z,57.47
2022-10-11T02:18:57.137Z,57.40
2022-10-11T02:19:37.166Z,57.64
2022-10-11T02:20:15.537Z,58.07
2022-10-11T02:20:50.657Z,58.61
2022-10-11T02:21:25.000Z,59.28
2022-10-11T02:22:03.960Z,59.99
2022-10-11T02:22:41.267Z,60.55
2022-10-11T02:23:20.673Z,60.96
2022-10-11T02:24:06.926Z,61.42
2022-10-11T02:24:44.936Z,61.85
2022-10-11T02:25:24.963Z,62.60
2022-10-11T02:25:58.222Z,63.41
2022-10-11T02:26:34.869Z,63.32
2022-10-11T02:27:10.725Z,63.04
2022-10-11T02:27:47.496Z,62.30
2022-10-11T02:28:29.242Z,61.42
2022-10-11T02:29:06.018Z,60.56
2022-10-11T02:29:44.346Z,59.06
2022-10-11T02:30:18.104Z,58.03
2022-10-11T02:30:53.840Z,57.39
2022-10-11T02:31:30.708Z,57.33
2022-10-11T02:32:04.537Z,57.52
2022-10-11T02:32:41.938Z,57.97
2022-10-11T02:33:21.750Z,58.58
2022-10-11T02:34:05.471Z,59.19
2022-10-11T02:34:45.286Z,59.54
2022-10-11T02:35:19.787Z,60.14
2022-10-11T02:36:03.314Z,61.00
2022-10-11T02:36:49.104Z,61.36
2022-10-11T02:37:36.829Z,61.74
2022-10-11T02:38:18.000Z,62.21
2022-10-11T02:38:59.310Z,63.41
2022-10-11T02:39:36.744Z,63.33
2022-10-11T02:40:31.426Z,62.56
2022-10-11T02:41:25.751Z,62.50
2022-10-11T02:42:05.432Z,61.36
2022-10-11T02:42:51.787Z,59.13
2022-10-11T02:43:38.562Z,57.51
2022-10-11T02:44:19.140Z,56.14
2022-10-11T02:45:01.044Z,56.27
2022-10-11T02:45:39.737Z,56.53
2022-10-11T02:46:15.225Z,57.05
2022-10-11T02:46:51.781Z,57.97
2022-10-11T02:47:25.095Z,58.45
2022-10-11T02:47:59.115Z,58.82
2022-10-11T02:48:33.914Z,59.37
2022-10-11T02:49:08.874Z,59.93
2022-10-11T02:49:42.169Z,60.61
2022-10-11T02:50:16.258Z,61.30
2022-10-11T02:50:49.502Z,61.57
2022-10-11T02:51:22.730Z,62.12
2022-10-11T02:51:57.464Z,62.77
2022-10-11T02:52:30.577Z,63.27
2022-10-11T02:53:04.903Z,63.46
2022-10-11T02:53:37.988Z,62.93
2022-10-11T02:54:11.300Z,62.01
2022-10-11T02:54:44.374Z,60.95
2022-10-11T02:55:17.635Z,60.27
2022-10-11T02:55:52.747Z,59.53
2022-10-11T02:56:25.914Z,58.95
2022-10-11T02:56:58.928Z,58.15
2022-10-11T02:57:32.122Z,57.65
2022-10-11T02:58:05.141Z,57.53
2022-10-11T02:58:38.280Z,57.76
2022-10-11T02:59:11.835Z,58.17
2022-10-11T02:59:45.033Z,58.68
2022-10-11T03:00:18.109Z,59.30
2022-10-11T03:00:51.120Z,59.79
2022-10-11T03:01:24.478Z,60.17
2022-10-11T03:01:57.731Z,60.63
2022-10-11T03:02:30.988Z,61.03
2022-10-11T03:03:04.291Z,61.58
2022-10-11T03:03:37.375Z,62.22
2022-10-11T03:04:10.478Z,62.76
2022-10-11T03:04:43.505Z,63.43
2022-10-11T03:05:16.649Z,63.76
2022-10-11T03:05:49.717Z,63.46
2022-10-11T03:06:22.960Z,62.97
2022-10-11T03:06:55.967Z,62.30
2022-10-11T03:07:29.146Z,61.47
2022-10-11T03:08:02.299Z,60.68
2022-10-11T03:08:35.653Z,59.85
2022-10-11T03:09:08.872Z,58.93
2022-10-11T03:09:42.111Z,58.10
2022-10-11T03:10:15.247Z,57.40
2022-10-11T03:10:48.547Z,57.06
2022-10-11T03:11:21.703Z,57.06
2022-10-11T03:11:54.933Z,57.45
2022-10-11T03:12:28.064Z,57.69
2022-10-11T03:13:01.235Z,58.31
2022-10-11T03:13:34.496Z,58.97
2022-10-11T03:14:07.661Z,59.82
2022-10-11T03:14:41.027Z,60.54
2022-10-11T03:15:14.263Z,60.96
2022-10-11T03:16:02.223Z,61.45
2022-10-11T03:16:40.282Z,61.35
2022-10-11T03:17:34.947Z,62.53
2022-10-11T03:18:06.746Z,63.24
2022-10-11T03:18:39.984Z,63.76
2022-10-11T03:19:18.337Z,63.62
2022-10-11T03:19:52.300Z,63.19
2022-10-11T03:20:26.395Z,62.04
2022-10-11T03:20:59.716Z,61.24
2022-10-11T03:21:32.967Z,60.30
2022-10-11T03:22:06.092Z,59.53
2022-10-11T03:22:39.264Z,58.69
2022-10-11T03:23:13.742Z,57.76
2022-10-11T03:23:46.856Z,57.37
2022-10-11T03:24:19.903Z,57.55
2022-10-11T03:24:53.643Z,57.49
2022-10-11T03:25:26.915Z,57.82
2022-10-11T03:26:00.242Z,58.42
2022-10-11T03:26:33.349Z,58.93
2022-10-11T03:27:06.554Z,59.46
2022-10-11T03:27:40.226Z,60.16
2022-10-11T03:28:13.472Z,60.69
2022-10-11T03:28:46.650Z,61.33
2022-10-11T03:29:19.840Z,61.92
2022-10-11T03:29:52.943Z,62.51
2022-10-11T03:30:26.515Z,63.03
2022-10-11T03:30:59.836Z,63.42
2022-10-11T03:31:33.081Z,63.51
2022-10-11T03:32:06.264Z,63.13
2022-10-11T03:32:39.545Z,62.23
2022-10-11T03:33:12.920Z,61.40
2022-10-11T03:33:46.266Z,60.57
2022-10-11T03:34:19.326Z,59.55
2022-10-11T03:34:52.569Z,58.65
2022-10-11T03:35:25.650Z,57.66
2022-10-11T03:35:58.864Z,57.13
2022-10-11T03:36:32.173Z,57.01
2022-10-11T03:37:05.462Z,57.34
2022-10-11T03:37:38.873Z,57.79
2022-10-11T03:38:14.578Z,58.15
2022-10-11T03:38:47.744Z,58.53
2022-10-11T03:39:21.324Z,59.06
2022-10-11T03:39:54.416Z,59.50
2022-10-11T03:40:27.504Z,60.03
2022-10-11T03:41:00.650Z,60.63
2022-10-11T03:41:33.726Z,61.04
2022-10-11T03:42:06.926Z,61.44
2022-10-11T03:42:40.599Z,61.80
2022-10-11T03:43:14.030Z,62.05
2022-10-11T03:43:47.237Z,62.72
2022-10-11T03:44:20.291Z,63.20
2022-10-11T03:44:53.423Z,63.44
2022-10-11T03:45:26.529Z,63.51
2022-10-11T03:45:59.545Z,62.88
2022-10-11T03:46:32.884Z,61.76
2022-10-11T03:47:06.344Z,60.52
2022-10-11T03:47:39.741Z,59.60
2022-10-11T03:48:12.859Z,58.60
2022-10-11T03:48:45.915Z,57.66
2022-10-11T03:49:19.113Z,57.06
2022-10-11T03:49:52.318Z,56.91
2022-10-11T03:50:25.543Z,57.19
2022-10-11T03:50:58.717Z,57.56
2022-10-11T03:51:32.040Z,57.94
2022-10-11T03:52:05.193Z,58.56
2022-10-11T03:52:38.337Z,59.23
2022-10-11T03:53:11.750Z,59.71
2022-10-11T03:53:45.334Z,60.30
2022-10-11T03:54:18.373Z,60.94
2022-10-11T03:54:51.506Z,61.54
2022-10-11T03:55:24.617Z,62.10
2022-10-11T03:55:57.827Z,62.60
2022-10-11T03:56:31.050Z,63.35
2022-10-11T03:57:04.311Z,63.75
2022-10-11T03:57:37.500Z,63.55
2022-10-11T03:58:10.563Z,62.85
2022-10-11T03:58:43.677Z,61.81
2022-10-11T03:59:16.865Z,60.77
2022-10-11T03:59:50.289Z,59.82
2022-10-11T04:00:23.562Z,58.95
2022-10-11T04:00:56.764Z,57.88
2022-10-11T04:01:30.867Z,57.22
2022-10-11T04:02:04.668Z,57.02
2022-10-11T04:02:39.297Z,57.05
2022-10-11T04:03:13.237Z,57.35
2022-10-11T04:03:46.376Z,58.19
2022-10-11T04:04:19.394Z,58.81
2022-10-11T04:04:52.642Z,59.37
2022-10-11T04:05:26.004Z,59.95
2022-10-11T04:05:59.236Z,60.59
2022-10-11T04:06:33.020Z,60.93
2022-10-11T04:07:06.275Z,61.30
2022-10-11T04:07:40.395Z,61.80
2022-10-11T04:08:13.487Z,62.32
2022-10-11T04:08:46.575Z,63.07
2022-10-11T04:09:19.653Z,63.79
2022-10-11T04:09:53.046Z,64.41
2022-10-11T04:10:26.260Z,64.12
2022-10-11T04:10:59.480Z,63.38
2022-10-11T04:11:33.095Z,62.35
2022-10-11T04:12:06.381Z,61.36
2022-10-11T04:12:39.774Z,60.46
2022-10-11T04:13:13.221Z,59.65
2022-10-11T04:13:46.556Z,59.05
2022-10-11T04:14:19.697Z,58.14
2022-10-11T04:14:52.797Z,57.73
2022-10-11T04:15:25.924Z,57.64
2022-10-11T04:15:59.068Z,58.12
2022-10-11T04:16:32.813Z,58.52
2022-10-11T04:17:06.086Z,59.06
2022-10-11T04:17:39.956Z,59.49
2022-10-11T04:18:13.308Z,60.03
2022-10-11T04:18:46.433Z,60.48
2022-10-11T04:19:19.752Z,61.14
2022-10-11T04:19:52.919Z,61.48
2022-10-11T04:20:26.000Z,61.87
2022-10-11T04:20:58.977Z,62.30
2022-10-11T04:21:32.367Z,62.75
2022-10-11T04:22:06.320Z,63.27
2022-10-11T04:22:39.643Z,63.46
2022-10-11T04:23:13.062Z,63.06
2022-10-11T04:23:46.079Z,62.61
2022-10-11T04:24:19.275Z,62.15
2022-10-11T04:24:52.402Z,61.46
2022-10-11T04:25:25.748Z,60.59
2022-10-11T04:25:59.756Z,59.84
2022-10-11T04:26:32.950Z,59.09
2022-10-11T04:27:06.625Z,58.33
2022-10-11T04:27:39.958Z,57.89
2022-10-11T04:28:13.302Z,57.73
2022-10-11T04:28:46.778Z,57.91
2022-10-11T04:29:20.051Z,58.45
2022-10-11T04:29:53.817Z,59.12
2022-10-11T04:30:27.645Z,59.66
2022-10-11T04:31:01.292Z,60.14
2022-10-11T04:31:34.790Z,60.62
2022-10-11T04:32:07.827Z,61.34
2022-10-11T04:32:40.880Z,62.05
2022-10-11T04:33:14.163Z,62.65
2022-10-11T04:33:47.934Z,63.37
2022-10-11T04:34:21.036Z,63.55
2022-10-11T04:34:54.141Z,63.34
2022-10-11T04:35:27.242Z,62.67
2022-10-11T04:36:00.388Z,61.75
2022-10-11T04:36:34.258Z,60.82
2022-10-11T04:37:07.352Z,60.22
2022-10-11T04:37:40.544Z,59.50
2022-10-11T04:38:13.602Z,58.88
2022-10-11T04:38:46.715Z,58.15
2022-10-11T04:39:19.876Z,57.74
2022-10-11T04:39:53.021Z,57.60
2022-10-11T04:40:26.132Z,58.06
2022-10-11T04:41:10.521Z,58.54
2022-10-11T04:41:43.634Z,58.90
2022-10-11T04:42:16.857Z,59.64
2022-10-11T04:42:50.820Z,60.13
2022-10-11T04:43:23.991Z,60.84
2022-10-11T04:43:57.415Z,61.41
2022-10-11T04:44:31.515Z,61.87
2022-10-11T04:45:05.195Z,62.37
2022-10-11T04:45:38.358Z,62.98
2022-10-11T04:46:11.960Z,63.72
2022-10-11T04:46:45.261Z,63.95
2022-10-11T04:47:18.588Z,63.56
2022-10-11T04:47:51.662Z,62.99
2022-10-11T04:48:24.806Z,62.23
2022-10-11T04:48:57.981Z,61.38
2022-10-11T04:49:31.110Z,60.74
2022-10-11T04:50:04.937Z,60.10
2022-10-11T04:50:38.316Z,59.28
2022-10-11T04:51:11.571Z,58.12
2022-10-11T04:51:44.913Z,57.53
2022-10-11T04:52:21.074Z,57.56
2022-10-11T04:52:56.560Z,58.01
2022-10-11T04:53:30.182Z,58.46
2022-10-11T04:54:03.284Z,59.05
2022-10-11T04:54:36.973Z,59.79
2022-10-11T04:55:11.174Z,60.55
2022-10-11T04:55:44.162Z,61.24
2022-10-11T04:56:18.858Z,61.86
2022-10-11T04:56:51.919Z,62.15
2022-10-11T04:57:25.025Z,62.77
2022-10-11T04:57:58.321Z,63.66
2022-10-11T04:58:32.714Z,64.16
2022-10-11T04:59:05.867Z,64.03
2022-10-11T04:59:38.989Z,63.20
2022-10-11T05:00:12.682Z,62.32
2022-10-11T05:00:45.892Z,61.54
2022-10-11T05:01:19.080Z,60.68
2022-10-11T05:01:52.329Z,59.84
2022-10-11T05:02:25.780Z,58.93
2022-10-11T05:02:59.188Z,57.88
2022-10-11T05:03:32.986Z,57.29
2022-10-11T05:04:06.221Z,57.23
2022-10-11T05:04:39.306Z,57.37
2022-10-11T05:05:17.495Z,57.95
2022-10-11T05:05:51.131Z,58.47
2022-10-11T05:06:24.202Z,59.30
2022-10-11T05:06:57.321Z,59.90
2022-10-11T05:07:30.518Z,60.33
2022-10-11T05:08:03.597Z,60.89
2022-10-11T05:08:36.830Z,61.55
2022-10-11T05:09:10.082Z,62.16
2022-10-11T05:09:43.437Z,62.78
2022-10-11T05:10:16.716Z,63.53
2022-10-11T05:11:01.291Z,63.80
2022-10-11T05:11:34.563Z,63.96
2022-10-11T05:12:07.808Z,62.66
2022-10-11T05:12:40.946Z,61.75
2022-10-11T05:13:14.045Z,60.94
2022-10-11T05:13:47.682Z,60.06
2022-10-11T05:14:20.929Z,59.42
2022-10-11T05:14:54.217Z,58.54
2022-10-11T05:15:27.450Z,57.97
2022-10-11T05:16:01.044Z,57.93
2022-10-11T05:16:34.320Z,58.04
2022-10-11T05:17:07.524Z,58.53
2022-10-11T05:17:40.767Z,59.09
2022-10-11T05:18:13.977Z,59.74
2022-10-11T05:18:47.182Z,60.37
2022-10-11T05:19:20.412Z,60.95
2022-10-11T05:19:53.509Z,61.63
2022-10-11T05:20:26.938Z,62.24
2022-10-11T05:21:19.632Z,62.74
2022-10-11T05:21:52.756Z,63.88
2022-10-11T05:22:25.966Z,63.90
2022-10-11T05:22:59.037Z,63.45
2022-10-11T05:23:34.117Z,62.59
2022-10-11T05:24:07.724Z,61.67
2022-10-11T05:24:40.770Z,60.54
2022-10-11T05:25:13.896Z,59.51
2022-10-11T05:25:47.247Z,58.28
2022-10-11T05:26:21.208Z,57.14
2022-10-11T05:26:54.339Z,56.64
2022-10-11T05:27:27.482Z,56.57
2022-10-11T05:28:01.639Z,56.99
2022-10-11T05:28:34.933Z,57.48
2022-10-11T05:29:08.110Z,58.16
2022-10-11T05:29:41.265Z,58.78
2022-10-11T05:30:14.423Z,59.47
2022-10-11T05:30:47.538Z,60.17
2022-10-11T05:31:21.352Z,60.80
2022-10-11T05:31:54.627Z,61.40
2022-10-11T05:32:28.218Z,61.99
2022-10-11T05:33:01.405Z,62.53
2022-10-11T05:33:34.887Z,63.18
2022-10-11T05:34:08.191Z,63.86
2022-10-11T05:34:41.395Z,63.95
2022-10-11T05:35:14.873Z,63.45
2022-10-11T05:35:48.045Z,62.58
2022-10-11T05:36:21.592Z,61.48
2022-10-11T05:36:56.614Z,60.43
2022-10-11T05:37:29.691Z,59.59
2022-10-11T05:38:02.840Z,58.48
2022-10-11T05:38:37.008Z,57.46
2022-10-11T05:39:10.168Z,57.04
2022-10-11T05:39:43.622Z,57.02
2022-10-11T05:40:17.008Z,57.32
2022-10-11T05:40:50.311Z,57.81
2022-10-11T05:41:23.430Z,58.42
2022-10-11T05:41:56.588Z,59.17
2022-10-11T05:42:29.639Z,59.89
2022-10-11T05:43:02.878Z,60.67
2022-10-11T05:43:36.192Z,61.34
2022-10-11T05:44:09.435Z,61.91
2022-10-11T05:44:42.759Z,62.52
2022-10-11T05:45:15.958Z,63.22
2022-10-11T05:45:49.976Z,63.98
2022-10-11T05:46:23.303Z,64.12
2022-10-11T05:46:56.511Z,63.61
2022-10-11T05:47:29.604Z,62.65
2022-10-11T05:48:02.760Z,61.55
2022-10-11T05:48:35.959Z,60.34
2022-10-11T05:49:09.016Z,59.41
2022-10-11T05:49:42.723Z,58.48
2022-10-11T05:50:17.195Z,57.50
2022-10-11T05:50:51.900Z,56.99
2022-10-11T05:51:24.912Z,56.99
2022-10-11T05:51:58.367Z,57.47
2022-10-11T05:52:32.110Z,58.09
2022-10-11T05:53:06.062Z,58.73
2022-10-11T05:53:39.722Z,59.42
2022-10-11T05:54:12.847Z,60.10
2022-10-11T05:54:46.112Z,60.82
2022-10-11T05:55:19.588Z,61.53
2022-10-11T05:55:52.916Z,62.18
2022-10-11T05:56:26.843Z,62.88
2022-10-11T05:57:00.183Z,63.76
2022-10-11T05:57:33.550Z,63.96
2022-10-11T05:58:08.026Z,63.56
2022-10-11T05:58:41.206Z,62.80
2022-10-11T05:59:14.796Z,61.70
2022-10-11T05:59:47.868Z,60.74
2022-10-11T06:00:21.246Z,59.73
2022-10-11T06:00:55.106Z,58.78
2022-10-11T06:01:28.844Z,57.81
2022-10-11T06:02:02.140Z,57.32
2022-10-11T06:02:35.258Z,57.45
2022-10-11T06:03:11.284Z,57.80
2022-10-11T06:03:44.700Z,58.26
2022-10-11T06:04:19.218Z,58.97
2022-10-11T06:04:52.376Z,59.67
2022-10-11T06:05:25.840Z,60.41
2022-10-11T06:06:02.852Z,61.10
2022-10-11T06:06:36.155Z,61.74
2022-10-11T06:07:09.351Z,62.56
2022-10-11T06:07:43.448Z,63.28
2022-10-11T06:08:16.933Z,63.92
2022-10-11T06:08:50.281Z,63.90
2022-10-11T06:09:23.464Z,63.33
2022-10-11T06:09:56.741Z,62.41
2022-10-11T06:10:29.973Z,61.50
2022-10-11T06:11:17.272Z,60.58
2022-10-11T06:11:51.043Z,60.54
2022-10-11T06:12:24.291Z,58.81
2022-10-11T06:12:57.706Z,57.79
2022-10-11T06:13:30.782Z,57.23
2022-10-11T06:14:03.963Z,57.21
2022-10-11T06:14:37.338Z,57.72
2022-10-11T06:15:11.665Z,58.31
2022-10-11T06:15:44.940Z,59.03
2022-10-11T06:16:18.093Z,59.73
2022-10-11T06:16:51.230Z,60.48
2022-10-11T06:17:24.549Z,61.22
2022-10-11T06:17:59.562Z,61.83
2022-10-11T06:18:33.207Z,62.36
2022-10-11T06:19:06.344Z,63.19
2022-10-11T06:19:39.462Z,63.81
2022-10-11T06:20:13.010Z,63.90
2022-10-11T06:20:46.233Z,63.60
2022-10-11T06:21:20.010Z,63.05
2022-10-11T06:21:53.519Z,62.04
2022-10-11T06:22:26.996Z,61.18
2022-10-11T06:23:00.694Z,60.34
2022-10-11T06:23:33.902Z,59.55
2022-10-11T06:24:07.362Z,58.82
2022-10-11T06:24:40.471Z,57.99
2022-10-11T06:25:13.775Z,57.72
2022-10-11T06:25:58.159Z,57.92
2022-10-11T06:26:31.417Z,58.23
2022-10-11T06:27:04.588Z,59.00
2022-10-11T06:27:38.151Z,59.68
2022-10-11T06:28:11.499Z,60.31
2022-10-11T06:28:45.111Z,61.05
2022-10-11T06:29:18.469Z,61.64
2022-10-11T06:29:51.605Z,62.34
2022-10-11T06:30:24.850Z,63.10
2022-10-11T06:30:58.529Z,63.87
2022-10-11T06:31:32.383Z,64.00
2022-10-11T06:32:06.125Z,64.06
2022-10-11T06:32:39.404Z,63.30
2022-10-11T06:33:12.699Z,62.46
2022-10-11T06:33:45.878Z,61.53
2022-10-11T06:34:19.038Z,60.55
2022-10-11T06:34:52.206Z,59.69
2022-10-11T06:35:26.171Z,58.90
2022-10-11T06:36:01.829Z,58.06
2022-10-11T06:36:35.304Z,57.69
2022-10-11T06:37:08.503Z,57.71
2022-10-11T06:37:41.632Z,58.21
2022-10-11T06:38:14.674Z,58.66
2022-10-11T06:38:47.788Z,59.42
2022-10-11T06:39:20.947Z,60.15
2022-10-11T06:39:54.102Z,60.94
2022-10-11T06:40:27.319Z,61.84
2022-10-11T06:41:17.544Z,62.24
2022-10-11T06:41:50.938Z,62.79
2022-10-11T06:42:24.258Z,63.67
2022-10-11T06:42:57.424Z,64.08
2022-10-11T06:43:30.499Z,63.29
2022-10-11T06:44:03.708Z,62.44
2022-10-11T06:44:37.656Z,61.65
2022-10-11T06:45:11.057Z,60.45
2022-10-11T06:45:44.090Z,59.87
2022-10-11T06:46:21.961Z,59.36
2022-10-11T06:46:54.961Z,58.65
2022-10-11T06:47:28.039Z,58.34
2022-10-11T06:48:02.204Z,58.58
2022-10-11T06:48:39.213Z,58.94
2022-10-11T06:49:12.503Z,59.48
2022-10-11T06:49:45.769Z,60.36
2022-10-11T06:50:34.805Z,61.08
2022-10-11T06:51:13.970Z,61.52
2022-10-11T06:51:47.168Z,62.76
2022-10-11T06:52:20.282Z,63.78
2022-10-11T06:52:53.465Z,64.18
2022-10-11T06:53:27.374Z,63.81
2022-10-11T06:54:02.044Z,63.27
2022-10-11T06:54:35.117Z,62.53
2022-10-11T06:55:08.969Z,61.58
2022-10-11T06:55:41.926Z,60.79
2022-10-11T06:56:15.336Z,59.93
2022-10-11T06:56:48.455Z,59.39
2022-10-11T06:57:21.701Z,58.62
2022-10-11T06:57:54.929Z,58.15
2022-10-11T06:58:28.827Z,58.17
2022-10-11T06:59:02.300Z,58.52
2022-10-11T06:59:35.312Z,59.15
2022-10-11T07:00:12.476Z,59.90
2022-10-11T07:00:46.110Z,60.57
2022-10-11T07:01:21.804Z,61.52
2022-10-11T07:01:55.098Z,62.22
2022-10-11T07:02:28.200Z,63.08
2022-10-11T07:03:01.339Z,63.80
2022-10-11T07:03:35.200Z,64.02
2022-10-11T07:04:08.631Z,63.81
2022-10-11T07:04:41.828Z,63.12
2022-10-11T07:05:14.964Z,62.18
2022-10-11T07:05:48.081Z,61.21
2022-10-11T07:06:26.692Z,60.50
2022-10-11T07:06:59.882Z,60.21
2022-10-11T07:07:33.327Z,59.41
2022-10-11T07:08:06.843Z,58.67
2022-10-11T07:08:41.058Z,58.26
2022-10-11T07:09:14.223Z,58.36
2022-10-11T07:09:47.704Z,58.71
2022-10-11T07:10:20.954Z,59.01
2022-10-11T07:10:54.317Z,59.59
2022-10-11T07:11:29.198Z,60.30
2022-10-11T07:12:02.654Z,60.79
2022-10-11T07:12:35.679Z,61.58
2022-10-11T07:13:13.514Z,62.27
2022-10-11T07:13:54.835Z,62.77
2022-10-11T07:14:27.862Z,63.86
2022-10-11T07:15:01.088Z,63.93
2022-10-11T07:15:38.403Z,63.53
2022-10-11T07:16:13.160Z,62.83
2022-10-11T07:16:46.265Z,61.72
2022-10-11T07:17:19.693Z,61.19
2022-10-11T07:17:52.793Z,60.56
2022-10-11T07:18:25.792Z,59.98
2022-10-11T07:19:01.226Z,59.34
2022-10-11T07:19:34.516Z,58.66
2022-10-11T07:20:08.280Z,58.25
2022-10-11T07:20:41.436Z,57.91
2022-10-11T07:21:16.493Z,58.21
2022-10-11T07:21:49.631Z,58.50
2022-10-11T07:22:22.963Z,59.17
2022-10-11T07:22:55.978Z,59.88
2022-10-11T07:23:29.077Z,60.64
2022-10-11T07:24:02.712Z,61.31
2022-10-11T07:24:35.916Z,61.97
2022-10-11T07:25:09.308Z,62.62
2022-10-11T07:25:42.511Z,63.71
2022-10-11T07:26:16.325Z,64.11
2022-10-11T07:26:50.310Z,63.96
2022-10-11T07:27:23.983Z,63.28
2022-10-11T07:27:57.105Z,62.43
2022-10-11T07:28:31.131Z,61.45
2022-10-11T07:29:04.916Z,60.53
2022-10-11T07:29:38.168Z,59.90
2022-10-11T07:30:11.672Z,59.19
2022-10-11T07:30:45.056Z,58.30
2022-10-11T07:31:21.241Z,57.81
2022-10-11T07:31:54.406Z,58.01
2022-10-11T07:32:27.605Z,58.50
2022-10-11T07:33:00.631Z,59.14
2022-10-11T07:33:33.982Z,59.82
2022-10-11T07:34:07.282Z,60.41
2022-10-11T07:34:40.326Z,61.01
2022-10-11T07:35:13.602Z,61.60
2022-10-11T07:35:48.528Z,62.18
2022-10-11T07:36:23.511Z,62.86
2022-10-11T07:36:56.462Z,63.71
2022-10-11T07:37:29.548Z,63.74
2022-10-11T07:38:04.115Z,63.41
2022-10-11T07:38:42.962Z,62.81
2022-10-11T07:39:16.173Z,62.02
2022-10-11T07:39:49.933Z,60.52
2022-10-11T07:40:23.092Z,60.26